createdAt,value
2023-05-03T00:09:58.249Z,64
2023-05-03T00:19:58.176Z,67
2023-05-03T00:29:58.180Z,69
2023-05-03T00:39:58.162Z,72
2023-05-03T00:49:57.969Z,68
2023-05-03T00:59:57.989Z,76
2023-05-03T01:09:57.919Z,74
2023-05-03T01:19:57.822Z,57
2023-05-03T01:29:57.819Z,43
2023-05-03T01:39:57.717Z,51
2023-05-03T01:49:57.634Z,43
2023-05-03T01:59:57.549Z,54
2023-05-03T02:09:57.406Z,38
2023-05-03T02:19:57.591Z,39
2023-05-03T02:29:57.288Z,52
2023-05-03T02:39:57.386Z,50
2023-05-03T02:49:57.191Z,53
2023-05-03T02:59:57.079Z,58
2023-05-03T03:09:57.242Z,56
2023-05-03T03:19:56.986Z,60
2023-05-03T03:29:56.871Z,58
2023-05-03T03:39:56.847Z,59
2023-05-03T03:49:56.772Z,56
2023-05-03T03:59:56.609Z,55
2023-05-03T04:09:56.589Z,58
2023-05-03T04:19:56.498Z,63
2023-05-03T04:29:56.450Z,70
2023-05-03T04:39:56.427Z,75
2023-05-03T04:49:56.277Z,77
2023-05-03T04:59:56.278Z,80
2023-05-03T05:09:56.147Z,86
2023-05-03T05:19:56.028Z,88
2023-05-03T05:29:56.061Z,96
2023-05-03T05:39:55.883Z,97
2023-05-03T05:49:55.915Z,99
2023-05-03T05:59:55.838Z,99
2023-05-03T06:09:55.909Z,99
2023-05-03T06:19:55.814Z,99
2023-05-03T06:29:55.631Z,99
2023-05-03T06:39:55.552Z,99
2023-05-03T06:49:55.490Z,99
2023-05-03T06:59:55.507Z,99
2023-05-03T07:09:55.279Z,99
2023-05-03T07:19:55.232Z,99
2023-05-03T07:29:55.258Z,99
2023-05-03T07:39:55.045Z,1
2023-05-03T07:49:55.014Z,1
2023-05-03T07:59:54.890Z,1
2023-05-03T08:09:54.917Z,1
2023-05-03T08:19:54.837Z,1
2023-05-03T08:29:54.826Z,1
2023-05-03T08:39:54.772Z,1
2023-05-03T08:49:54.796Z,1
2023-05-03T08:59:54.601Z,1
2023-05-03T09:09:54.612Z,1
2023-05-03T09:19:54.493Z,1
2023-05-03T09:29:54.428Z,1
2023-05-03T09:39:54.299Z,1
2023-05-03T09:46:56.765Z,1
2023-05-03T09:56:56.505Z,1
2023-05-03T10:06:56.292Z,1
2023-05-03T10:16:56.335Z,1
2023-05-03T10:26:56.163Z,1
2023-05-03T10:36:56.057Z,1
2023-05-03T10:46:56.076Z,1
2023-05-03T10:56:56.102Z,1
2023-05-03T11:06:56.223Z,1
2023-05-03T11:16:56.262Z,1
2023-05-03T11:26:55.923Z,1
2023-05-03T11:36:55.742Z,1
2023-05-03T11:46:55.766Z,1
2023-05-03T11:56:55.596Z,1
2023-05-03T12:06:56.464Z,1
2023-05-03T12:16:56.767Z,1
2023-05-03T12:26:57.318Z,1
2023-05-03T12:36:57.216Z,1
2023-05-03T12:46:55.430Z,1
2023-05-03T12:56:55.818Z,1
2023-05-03T13:06:59.457Z,1
2023-05-03T13:16:55.143Z,1
2023-05-03T13:26:55.027Z,1
2023-05-03T13:36:54.971Z,1
2023-05-03T13:46:54.892Z,1
2023-05-03T13:56:54.976Z,1
2023-05-03T14:06:54.682Z,1
2023-05-03T14:16:54.753Z,1
2023-05-03T14:26:54.628Z,1
2023-05-03T14:36:54.592Z,1
2023-05-03T14:46:54.505Z,1
2023-05-03T14:56:54.360Z,1
2023-05-03T15:06:54.234Z,1
2023-05-03T15:16:54.372Z,1
2023-05-03T15:26:54.208Z,1
2023-05-03T15:36:54.004Z,1
2023-05-03T15:46:53.854Z,1
2023-05-03T15:56:53.789Z,1
2023-05-03T16:06:53.764Z,1
2023-05-03T16:16:53.639Z,1
2023-05-03T16:26:53.699Z,1
2023-05-03T16:36:53.670Z,1
2023-05-03T16:46:53.503Z,1
2023-05-03T16:56:53.421Z,1
2023-05-03T17:06:53.374Z,1
2023-05-03T17:16:53.259Z,1
2023-05-03T17:26:53.127Z,1
2023-05-03T17:36:53.043Z,1
2023-05-03T17:46:53.055Z,1
2023-05-03T17:56:53.007Z,1
2023-05-03T18:06:52.863Z,1
2023-05-03T18:16:54.416Z,1
2023-05-03T18:26:52.867Z,1
2023-05-03T18:36:52.730Z,1
2023-05-03T18:46:52.720Z,99
2023-05-03T18:56:52.484Z,99
2023-05-03T19:06:52.503Z,99
2023-05-03T19:16:52.473Z,99
2023-05-03T19:26:52.328Z,99
2023-05-03T19:36:52.223Z,1
2023-05-03T19:46:52.171Z,1
2023-05-03T19:56:52.167Z,1
2023-05-03T20:06:52.191Z,1
2023-05-03T20:16:52.124Z,1
2023-05-03T20:26:51.970Z,1
2023-05-03T20:36:51.897Z,1
2023-05-03T20:46:51.863Z,1
2023-05-03T20:56:51.764Z,1
2023-05-03T21:06:51.746Z,1
2023-05-03T21:16:51.716Z,1
2023-05-03T21:26:51.595Z,1
2023-05-03T21:36:51.469Z,1
2023-05-03T21:46:51.498Z,1
2023-05-03T21:56:51.181Z,1
2023-05-03T22:06:51.141Z,1
2023-05-03T22:16:51.032Z,1
2023-05-03T22:26:50.962Z,1
2023-05-03T22:36:51.120Z,1
2023-05-03T22:46:50.818Z,1
2023-05-03T22:56:50.825Z,1
2023-05-03T23:06:50.781Z,1
2023-05-03T23:16:50.869Z,1
2023-05-03T23:26:50.700Z,1
2023-05-03T23:36:50.557Z,1
2023-05-03T23:46:50.415Z,1
2023-05-03T23:56:50.426Z,1
